sensor_id;sensor_type;location;lat;lon;timestamp;pressure;altitude;pressure_sealevel;temperature;humidity
54994;BME280;40891;47.242;8.648;2023-04-08T00:00:55;96602.75;;;6.60;97.16
54994;BME280;40891;47.242;8.648;2023-04-08T00:03:21;96604.00;;;6.56;97.58
54994;BME280;40891;47.242;8.648;2023-04-08T00:05:46;96611.59;;;6.52;98.09
54994;BME280;40891;47.242;8.648;2023-04-08T00:08:11;96606.53;;;6.47;97.96
54994;BME280;40891;47.242;8.648;2023-04-08T00:10:37;96614.09;;;6.43;98.12
54994;BME280;40891;47.242;8.648;2023-04-08T00:13:03;96602.72;;;6.41;98.13
54994;BME280;40891;47.242;8.648;2023-04-08T00:15:28;96608.63;;;6.39;97.71
54994;BME280;40891;47.242;8.648;2023-04-08T00:17:53;96603.59;;;6.34;98.05
54994;BME280;40891;47.242;8.648;2023-04-08T00:20:21;96603.31;;;6.29;98.27
54994;BME280;40891;47.242;8.648;2023-04-08T00:22:46;96605.81;;;6.20;99.41
54994;BME280;40891;47.242;8.648;2023-04-08T00:25:12;96600.03;;;6.10;99.76
54994;BME280;40891;47.242;8.648;2023-04-08T00:27:37;96597.81;;;6.02;100.00
54994;BME280;40891;47.242;8.648;2023-04-08T00:30:02;96597.47;;;5.96;100.00
54994;BME280;40891;47.242;8.648;2023-04-08T00:32:28;96592.94;;;5.83;100.00
54994;BME280;40891;47.242;8.648;2023-04-08T00:34:54;96591.84;;;5.77;100.00
54994;BME280;40891;47.242;8.648;2023-04-08T00:37:19;96594.66;;;5.73;100.00
54994;BME280;40891;47.242;8.648;2023-04-08T00:39:45;96593.22;;;5.62;100.00
54994;BME280;40891;47.242;8.648;2023-04-08T00:42:10;96601.97;;;5.57;99.82
54994;BME280;40891;47.242;8.648;2023-04-08T00:44:36;96595.00;;;5.48;99.93
54994;BME280;40891;47.242;8.648;2023-04-08T00:47:02;96593.53;;;5.40;100.00
54994;BME280;40891;47.242;8.648;2023-04-08T00:49:30;96598.75;;;5.31;100.00
54994;BME280;40891;47.242;8.648;2023-04-08T00:51:55;96599.22;;;5.26;100.00
54994;BME280;40891;47.242;8.648;2023-04-08T00:54:21;96597.63;;;5.25;100.00
54994;BME280;40891;47.242;8.648;2023-04-08T00:56:46;96592.28;;;5.15;100.00
54994;BME280;40891;47.242;8.648;2023-04-08T00:59:12;96606.47;;;5.13;100.00
54994;BME280;40891;47.242;8.648;2023-04-08T01:01:56;96601.78;;;5.10;100.00
54994;BME280;40891;47.242;8.648;2023-04-08T01:07:28;96606.66;;;4.96;100.00
54994;BME280;40891;47.242;8.648;2023-04-08T01:09:56;96598.06;;;4.90;100.00
54994;BME280;40891;47.242;8.648;2023-04-08T01:12:29;96605.94;;;4.92;100.00
54994;BME280;40891;47.242;8.648;2023-04-08T01:14:59;96606.31;;;4.90;100.00
54994;BME280;40891;47.242;8.648;2023-04-08T01:17:26;96602.84;;;4.86;100.00
54994;BME280;40891;47.242;8.648;2023-04-08T01:19:53;96610.72;;;4.84;100.00
54994;BME280;40891;47.242;8.648;2023-04-08T01:25:11;96604.22;;;4.67;100.00
54994;BME280;40891;47.242;8.648;2023-04-08T01:27:41;96603.06;;;4.61;100.00
54994;BME280;40891;47.242;8.648;2023-04-08T01:30:08;96595.22;;;4.60;100.00
54994;BME280;40891;47.242;8.648;2023-04-08T01:32:34;96596.44;;;4.59;100.00
54994;BME280;40891;47.242;8.648;2023-04-08T01:35:01;96600.00;;;4.56;100.00
54994;BME280;40891;47.242;8.648;2023-04-08T01:37:27;96598.06;;;4.53;100.00
54994;BME280;40891;47.242;8.648;2023-04-08T01:39:54;96596.09;;;4.53;100.00
54994;BME280;40891;47.242;8.648;2023-04-08T01:42:23;96600.06;;;4.49;100.00
54994;BME280;40891;47.242;8.648;2023-04-08T01:44:51;96601.66;;;4.46;100.00
54994;BME280;40891;47.242;8.648;2023-04-08T01:47:18;96603.28;;;4.40;100.00
54994;BME280;40891;47.242;8.648;2023-04-08T01:49:43;96598.63;;;4.34;100.00
54994;BME280;40891;47.242;8.648;2023-04-08T01:52:10;96603.38;;;4.30;100.00
54994;BME280;40891;47.242;8.648;2023-04-08T01:54:36;96597.91;;;4.26;100.00
54994;BME280;40891;47.242;8.648;2023-04-08T01:57:04;96603.44;;;4.23;100.00
54994;BME280;40891;47.242;8.648;2023-04-08T01:59:34;96603.47;;;4.19;100.00
54994;BME280;40891;47.242;8.648;2023-04-08T02:02:04;96604.66;;;4.18;100.00
54994;BME280;40891;47.242;8.648;2023-04-08T02:04:30;96599.19;;;4.14;100.00
54994;BME280;40891;47.242;8.648;2023-04-08T02:06:57;96605.50;;;4.11;100.00
54994;BME280;40891;47.242;8.648;2023-04-08T02:09:24;96604.34;;;4.09;100.00
54994;BME280;40891;47.242;8.648;2023-04-08T02:11:49;96612.19;;;4.07;100.00
54994;BME280;40891;47.242;8.648;2023-04-08T02:14:14;96611.06;;;4.04;100.00
54994;BME280;40891;47.242;8.648;2023-04-08T02:16:58;96616.16;;;4.02;100.00
54994;BME280;40891;47.242;8.648;2023-04-08T02:19:29;96612.66;;;3.98;100.00
54994;BME280;40891;47.242;8.648;2023-04-08T02:22:05;96618.16;;;4.02;100.00
54994;BME280;40891;47.242;8.648;2023-04-08T02:24:34;96612.25;;;4.03;100.00
54994;BME280;40891;47.242;8.648;2023-04-08T02:27:02;96620.88;;;4.05;100.00
54994;BME280;40891;47.242;8.648;2023-04-08T02:29:30;96619.69;;;4.06;100.00
54994;BME280;40891;47.242;8.648;2023-04-08T02:31:56;96624.00;;;4.07;100.00
54994;BME280;40891;47.242;8.648;2023-04-08T02:34:22;96618.50;;;4.07;100.00
54994;BME280;40891;47.242;8.648;2023-04-08T02:36:49;96623.19;;;4.07;100.00
54994;BME280;40891;47.242;8.648;2023-04-08T02:39:15;96615.38;;;4.05;100.00
54994;BME280;40891;47.242;8.648;2023-04-08T02:41:41;96615.00;;;4.03;100.00
54994;BME280;40891;47.242;8.648;2023-04-08T02:44:08;96624.41;;;4.02;100.00
54994;BME280;40891;47.242;8.648;2023-04-08T02:46:33;96623.66;;;4.02;100.00
54994;BME280;40891;47.242;8.648;2023-04-08T02:48:59;96629.16;;;3.98;100.00
54994;BME280;40891;47.242;8.648;2023-04-08T02:51:24;96621.34;;;3.97;100.00
54994;BME280;40891;47.242;8.648;2023-04-08T02:53:50;96623.72;;;3.95;100.00
54994;BME280;40891;47.242;8.648;2023-04-08T02:56:15;96619.78;;;3.92;100.00
54994;BME280;40891;47.242;8.648;2023-04-08T02:58:41;96627.66;;;3.90;100.00
54994;BME280;40891;47.242;8.648;2023-04-08T03:01:07;96623.34;;;3.89;100.00
54994;BME280;40891;47.242;8.648;2023-04-08T03:03:33;96618.63;;;3.90;100.00
54994;BME280;40891;47.242;8.648;2023-04-08T03:05:58;96618.63;;;3.90;100.00
54994;BME280;40891;47.242;8.648;2023-04-08T03:08:23;96614.69;;;3.91;100.00
54994;BME280;40891;47.242;8.648;2023-04-08T03:10:49;96624.91;;;3.90;100.00
54994;BME280;40891;47.242;8.648;2023-04-08T03:13:15;96620.56;;;3.93;100.00
54994;BME280;40891;47.242;8.648;2023-04-08T03:15:40;96621.34;;;3.93;100.00
54994;BME280;40891;47.242;8.648;2023-04-08T03:18:06;96623.31;;;3.93;100.00
54994;BME280;40891;47.242;8.648;2023-04-08T03:20:32;96626.47;;;3.95;100.00
54994;BME280;40891;47.242;8.648;2023-04-08T03:22:57;96622.13;;;3.94;100.00
54994;BME280;40891;47.242;8.648;2023-04-08T03:25:22;96621.72;;;3.95;100.00
54994;BME280;40891;47.242;8.648;2023-04-08T03:27:48;96621.34;;;3.93;100.00
54994;BME280;40891;47.242;8.648;2023-04-08T03:30:13;96620.16;;;3.94;100.00
54994;BME280;40891;47.242;8.648;2023-04-08T03:32:38;96622.13;;;3.94;100.00
54994;BME280;40891;47.242;8.648;2023-04-08T03:35:05;96628.06;;;3.89;100.00
54994;BME280;40891;47.242;8.648;2023-04-08T03:37:30;96621.81;;;3.85;100.00
54994;BME280;40891;47.242;8.648;2023-04-08T03:39:56;96633.97;;;3.84;100.00
54994;BME280;40891;47.242;8.648;2023-04-08T03:42:22;96632.81;;;3.85;100.00
54994;BME280;40891;47.242;8.648;2023-04-08T03:44:47;96632.81;;;3.85;100.00
54994;BME280;40891;47.242;8.648;2023-04-08T03:47:13;96632.00;;;3.84;100.00
54994;BME280;40891;47.242;8.648;2023-04-08T03:49:38;96637.50;;;3.88;100.00
54994;BME280;40891;47.242;8.648;2023-04-08T03:52:03;96633.16;;;3.90;100.00
54994;BME280;40891;47.242;8.648;2023-04-08T03:54:29;96637.88;;;3.90;100.00
54994;BME280;40891;47.242;8.648;2023-04-08T03:56:54;96628.84;;;3.89;100.00
54994;BME280;40891;47.242;8.648;2023-04-08T03:59:20;96630.78;;;3.92;100.00
54994;BME280;40891;47.242;8.648;2023-04-08T04:01:45;96635.88;;;3.94;100.00
54994;BME280;40891;47.242;8.648;2023-04-08T04:04:11;96636.25;;;3.96;100.00
54994;BME280;40891;47.242;8.648;2023-04-08T04:06:37;96635.81;;;4.04;100.00
54994;BME280;40891;47.242;8.648;2023-04-08T04:09:02;96632.28;;;4.04;100.00
54994;BME280;40891;47.242;8.648;2023-04-08T04:11:27;96631.91;;;4.02;100.00
54994;BME280;40891;47.242;8.648;2023-04-08T04:13:53;96627.94;;;4.06;100.00
54994;BME280;40891;47.242;8.648;2023-04-08T04:16:18;96633.03;;;4.08;100.00
54994;BME280;40891;47.242;8.648;2023-04-08T04:18:43;96633.41;;;4.13;100.00
54994;BME280;40891;47.242;8.648;2023-04-08T04:21:09;96628.22;;;4.23;100.00
54994;BME280;40891;47.242;8.648;2023-04-08T04:23:34;96634.78;;;4.36;100.00
54994;BME280;40891;47.242;8.648;2023-04-08T04:26:00;96635.94;;;4.38;100.00
54994;BME280;40891;47.242;8.648;2023-04-08T04:28:25;96641.75;;;4.47;100.00
54994;BME280;40891;47.242;8.648;2023-04-08T04:30:51;96638.53;;;4.56;100.00
54994;BME280;40891;47.242;8.648;2023-04-08T04:33:16;96632.19;;;4.62;100.00
54994;BME280;40891;47.242;8.648;2023-04-08T04:35:42;96639.94;;;4.74;100.00
54994;BME280;40891;47.242;8.648;2023-04-08T04:38:08;96635.53;;;4.84;100.00
54994;BME280;40891;47.242;8.648;2023-04-08T04:40:37;96632.72;;;4.88;100.00
54994;BME280;40891;47.242;8.648;2023-04-08T04:43:02;96637.81;;;4.89;100.00
54994;BME280;40891;47.242;8.648;2023-04-08T04:45:27;96639.78;;;4.92;100.00
54994;BME280;40891;47.242;8.648;2023-04-08T04:47:53;96634.25;;;4.92;100.00
54994;BME280;40891;47.242;8.648;2023-04-08T04:50:18;96642.53;;;4.92;100.00
54994;BME280;40891;47.242;8.648;2023-04-08T04:52:43;96641.69;;;4.95;100.00
54994;BME280;40891;47.242;8.648;2023-04-08T04:55:09;96642.81;;;5.01;100.00
54994;BME280;40891;47.242;8.648;2023-04-08T04:57:34;96646.22;;;5.12;100.00
54994;BME280;40891;47.242;8.648;2023-04-08T05:00:00;96652.91;;;5.11;100.00
54994;BME280;40891;47.242;8.648;2023-04-08T05:02:25;96644.22;;;5.16;100.00
54994;BME280;40891;47.242;8.648;2023-04-08T05:04:51;96646.88;;;5.23;100.00
54994;BME280;40891;47.242;8.648;2023-04-08T05:07:18;96644.91;;;5.24;100.00
54994;BME280;40891;47.242;8.648;2023-04-08T05:09:43;96655.13;;;5.27;100.00
54994;BME280;40891;47.242;8.648;2023-04-08T05:12:09;96652.69;;;5.32;100.00
54994;BME280;40891;47.242;8.648;2023-04-08T05:14:35;96656.19;;;5.36;100.00
54994;BME280;40891;47.242;8.648;2023-04-08T05:17:00;96658.13;;;5.39;100.00
54994;BME280;40891;47.242;8.648;2023-04-08T05:19:25;96664.38;;;5.43;100.00
54994;BME280;40891;47.242;8.648;2023-04-08T05:21:51;96662.34;;;5.47;100.00
54994;BME280;40891;47.242;8.648;2023-04-08T05:24:16;96669.00;;;5.54;100.00
54994;BME280;40891;47.242;8.648;2023-04-08T05:26:41;96659.41;;;5.62;100.00
54994;BME280;40891;47.242;8.648;2023-04-08T05:29:07;96662.97;;;5.62;100.00
54994;BME280;40891;47.242;8.648;2023-04-08T05:31:32;96660.94;;;5.66;100.00
54994;BME280;40891;47.242;8.648;2023-04-08T05:33:57;96664.13;;;5.65;100.00
54994;BME280;40891;47.242;8.648;2023-04-08T05:36:23;96669.63;;;5.65;100.00
54994;BME280;40891;47.242;8.648;2023-04-08T05:38:48;96672.41;;;5.65;100.00
54994;BME280;40891;47.242;8.648;2023-04-08T05:41:13;96665.63;;;5.69;100.00
54994;BME280;40891;47.242;8.648;2023-04-08T05:43:39;96671.09;;;5.73;100.00
54994;BME280;40891;47.242;8.648;2023-04-08T05:46:09;96673.03;;;5.76;100.00
54994;BME280;40891;47.242;8.648;2023-04-08T05:48:35;96672.56;;;5.81;100.00
54994;BME280;40891;47.242;8.648;2023-04-08T05:51:00;96681.97;;;5.87;100.00
54994;BME280;40891;47.242;8.648;2023-04-08T05:53:26;96677.59;;;5.89;100.00
54994;BME280;40891;47.242;8.648;2023-04-08T05:55:51;96676.19;;;6.08;100.00
54994;BME280;40891;47.242;8.648;2023-04-08T05:58:16;96691.72;;;5.95;100.00
54994;BME280;40891;47.242;8.648;2023-04-08T06:00:42;96679.50;;;5.96;100.00
54994;BME280;40891;47.242;8.648;2023-04-08T06:03:07;96696.88;;;5.93;100.00
54994;BME280;40891;47.242;8.648;2023-04-08T06:05:32;96687.34;;;5.97;100.00
54994;BME280;40891;47.242;8.648;2023-04-08T06:07:58;96694.91;;;5.93;100.00
54994;BME280;40891;47.242;8.648;2023-04-08T06:10:23;96693.31;;;5.96;100.00
54994;BME280;40891;47.242;8.648;2023-04-08T06:12:48;96692.94;;;5.94;100.00
54994;BME280;40891;47.242;8.648;2023-04-08T06:15:14;96699.19;;;5.98;100.00
54994;BME280;40891;47.242;8.648;2023-04-08T06:17:40;96702.63;;;6.05;100.00
54994;BME280;40891;47.242;8.648;2023-04-08T06:20:06;96707.66;;;6.10;100.00
54994;BME280;40891;47.242;8.648;2023-04-08T06:22:34;96702.09;;;6.14;100.00
54994;BME280;40891;47.242;8.648;2023-04-08T06:25:00;96705.66;;;6.14;100.00
54994;BME280;40891;47.242;8.648;2023-04-08T06:27:25;96708.78;;;6.16;100.00
54994;BME280;40891;47.242;8.648;2023-04-08T06:29:50;96705.13;;;6.23;100.00
54994;BME280;40891;47.242;8.648;2023-04-08T06:32:17;96703.09;;;6.27;100.00
54994;BME280;40891;47.242;8.648;2023-04-08T06:34:44;96704.09;;;6.40;100.00
54994;BME280;40891;47.242;8.648;2023-04-08T06:37:09;96709.72;;;6.33;100.00
54994;BME280;40891;47.242;8.648;2023-04-08T06:39:35;96707.19;;;6.46;100.00
54994;BME280;40891;47.242;8.648;2023-04-08T06:42:00;96695.75;;;6.44;100.00
54994;BME280;40891;47.242;8.648;2023-04-08T06:44:26;96705.97;;;6.47;100.00
54994;BME280;40891;47.242;8.648;2023-04-08T06:46:51;96705.28;;;6.39;100.00
54994;BME280;40891;47.242;8.648;2023-04-08T06:49:16;96707.19;;;6.46;100.00
54994;BME280;40891;47.242;8.648;2023-04-08T06:51:42;96706.28;;;6.52;100.00
54994;BME280;40891;47.242;8.648;2023-04-08T06:54:07;96710.38;;;6.67;99.21
54994;BME280;40891;47.242;8.648;2023-04-08T06:56:35;96710.38;;;6.67;98.58
54994;BME280;40891;47.242;8.648;2023-04-08T06:59:01;96708.00;;;6.69;99.33
54994;BME280;40891;47.242;8.648;2023-04-08T07:01:27;96714.22;;;6.73;100.00
54994;BME280;40891;47.242;8.648;2023-04-08T07:03:53;96707.38;;;6.81;98.64
54994;BME280;40891;47.242;8.648;2023-04-08T07:06:18;96710.00;;;6.88;97.98
54994;BME280;40891;47.242;8.648;2023-04-08T07:08:43;96712.28;;;6.94;98.81
54994;BME280;40891;47.242;8.648;2023-04-08T07:11:09;96710.91;;;7.05;98.70
54994;BME280;40891;47.242;8.648;2023-04-08T07:13:34;96710.66;;;7.19;97.85
54994;BME280;40891;47.242;8.648;2023-04-08T07:15:59;96711.91;;;7.38;97.09
54994;BME280;40891;47.242;8.648;2023-04-08T07:18:25;96713.13;;;7.57;96.42
54994;BME280;40891;47.242;8.648;2023-04-08T07:20:52;96712.06;;;7.70;95.78
54994;BME280;40891;47.242;8.648;2023-04-08T07:23:18;96709.50;;;7.79;93.75
54994;BME280;40891;47.242;8.648;2023-04-08T07:25:45;96712.84;;;7.90;93.49
54994;BME280;40891;47.242;8.648;2023-04-08T07:28:11;96714.41;;;7.91;93.77
54994;BME280;40891;47.242;8.648;2023-04-08T07:30:36;96718.22;;;7.97;93.68
54994;BME280;40891;47.242;8.648;2023-04-08T07:33:01;96717.72;;;8.02;93.36
54994;BME280;40891;47.242;8.648;2023-04-08T07:35:27;96715.03;;;8.18;92.54
54994;BME280;40891;47.242;8.648;2023-04-08T07:37:53;96717.00;;;8.18;92.16
54994;BME280;40891;47.242;8.648;2023-04-08T07:40:19;96724.69;;;8.30;92.39
54994;BME280;40891;47.242;8.648;2023-04-08T07:42:45;96723.13;;;8.29;92.10
54994;BME280;40891;47.242;8.648;2023-04-08T07:45:10;96729.03;;;8.47;92.00
54994;BME280;40891;47.242;8.648;2023-04-08T07:47:36;96721.16;;;8.46;91.67
54994;BME280;40891;47.242;8.648;2023-04-08T07:50:02;96729.63;;;8.39;92.64
54994;BME280;40891;47.242;8.648;2023-04-08T07:52:29;96729.97;;;8.41;92.20
54994;BME280;40891;47.242;8.648;2023-04-08T07:54:54;96732.34;;;8.42;90.93
54994;BME280;40891;47.242;8.648;2023-04-08T07:57:20;96737.34;;;8.47;91.10
54994;BME280;40891;47.242;8.648;2023-04-08T07:59:45;96740.06;;;8.51;90.74
54994;BME280;40891;47.242;8.648;2023-04-08T08:02:11;96742.31;;;8.56;90.75
54994;BME280;40891;47.242;8.648;2023-04-08T08:04:36;96748.03;;;8.65;89.84
54994;BME280;40891;47.242;8.648;2023-04-08T08:07:01;96741.81;;;8.61;88.70
54994;BME280;40891;47.242;8.648;2023-04-08T08:09:26;96742.84;;;8.67;88.21
54994;BME280;40891;47.242;8.648;2023-04-08T08:11:52;96748.91;;;8.62;88.83
54994;BME280;40891;47.242;8.648;2023-04-08T08:14:17;96739.03;;;8.77;89.15
54994;BME280;40891;47.242;8.648;2023-04-08T08:16:42;96733.78;;;8.82;88.76
54994;BME280;40891;47.242;8.648;2023-04-08T08:19:08;96744.25;;;8.91;88.98
54994;BME280;40891;47.242;8.648;2023-04-08T08:21:37;96740.44;;;9.17;86.85
54994;BME280;40891;47.242;8.648;2023-04-08T08:24:03;96737.28;;;9.31;87.50
54994;BME280;40891;47.242;8.648;2023-04-08T08:26:29;96742.97;;;9.56;86.48
54994;BME280;40891;47.242;8.648;2023-04-08T08:28:54;96737.06;;;9.54;86.64
54994;BME280;40891;47.242;8.648;2023-04-08T08:31:20;96738.06;;;9.77;84.02
54994;BME280;40891;47.242;8.648;2023-04-08T08:33:45;96738.00;;;9.93;82.65
54994;BME280;40891;47.242;8.648;2023-04-08T08:36:11;96732.31;;;10.12;80.15
54994;BME280;40891;47.242;8.648;2023-04-08T08:38:37;96724.13;;;10.21;80.04
54994;BME280;40891;47.242;8.648;2023-04-08T08:41:02;96725.69;;;10.60;78.13
54994;BME280;40891;47.242;8.648;2023-04-08T08:43:29;96725.69;;;10.60;78.20
54994;BME280;40891;47.242;8.648;2023-04-08T08:45:58;96724.13;;;10.72;76.94
54994;BME280;40891;47.242;8.648;2023-04-08T08:48:23;96725.03;;;10.94;78.21
54994;BME280;40891;47.242;8.648;2023-04-08T08:50:49;96730.28;;;11.39;77.59
54994;BME280;40891;47.242;8.648;2023-04-08T08:53:15;96735.66;;;11.80;78.20
54994;BME280;40891;47.242;8.648;2023-04-08T08:55:41;96737.06;;;12.28;73.61
54994;BME280;40891;47.242;8.648;2023-04-08T08:58:06;96722.41;;;12.37;72.81
54994;BME280;40891;47.242;8.648;2023-04-08T09:00:36;96729.41;;;12.41;72.64
54994;BME280;40891;47.242;8.648;2023-04-08T09:03:21;96734.47;;;12.34;69.90
54994;BME280;40891;47.242;8.648;2023-04-08T09:05:55;96747.13;;;12.25;70.43
54994;BME280;40891;47.242;8.648;2023-04-08T09:10:50;96731.22;;;12.35;69.90
54994;BME280;40891;47.242;8.648;2023-04-08T09:13:15;96733.88;;;12.69;67.79
54994;BME280;40891;47.242;8.648;2023-04-08T09:16:04;96733.13;;;12.47;70.24
54994;BME280;40891;47.242;8.648;2023-04-08T09:18:31;96724.94;;;13.23;66.40
54994;BME280;40891;47.242;8.648;2023-04-08T09:21:00;96723.63;;;13.55;65.24
54994;BME280;40891;47.242;8.648;2023-04-08T09:23:42;96733.25;;;13.81;62.32
54994;BME280;40891;47.242;8.648;2023-04-08T09:26:09;96725.97;;;13.93;61.53
54994;BME280;40891;47.242;8.648;2023-04-08T09:28:35;96725.50;;;14.12;59.35
54994;BME280;40891;47.242;8.648;2023-04-08T09:31:29;96728.13;;;14.16;58.57
54994;BME280;40891;47.242;8.648;2023-04-08T09:33:59;96721.28;;;13.99;59.10
54994;BME280;40891;47.242;8.648;2023-04-08T09:36:25;96724.38;;;14.01;59.94
54994;BME280;40891;47.242;8.648;2023-04-08T09:38:52;96723.63;;;14.09;60.96
54994;BME280;40891;47.242;8.648;2023-04-08T09:41:18;96726.69;;;14.39;57.12
54994;BME280;40891;47.242;8.648;2023-04-08T09:43:49;96723.41;;;14.49;57.01
54994;BME280;40891;47.242;8.648;2023-04-08T09:46:17;96719.19;;;14.63;54.47
54994;BME280;40891;47.242;8.648;2023-04-08T09:49:06;96718.13;;;14.93;53.25
54994;BME280;40891;47.242;8.648;2023-04-08T09:51:35;96719.47;;;14.74;55.42
54994;BME280;40891;47.242;8.648;2023-04-08T09:54:09;96717.84;;;15.24;53.29
54994;BME280;40891;47.242;8.648;2023-04-08T09:56:41;96726.34;;;15.29;54.78
54994;BME280;40891;47.242;8.648;2023-04-08T09:59:13;96723.78;;;15.17;55.85
54994;BME280;40891;47.242;8.648;2023-04-08T10:01:46;96730.25;;;14.99;54.97
54994;BME280;40891;47.242;8.648;2023-04-08T10:04:16;96732.59;;;15.24;54.20
54994;BME280;40891;47.242;8.648;2023-04-08T10:06:43;96729.31;;;15.82;52.59
54994;BME280;40891;47.242;8.648;2023-04-08T10:09:09;96727.66;;;16.28;51.79
54994;BME280;40891;47.242;8.648;2023-04-08T10:11:35;96724.94;;;17.77;46.61
54994;BME280;40891;47.242;8.648;2023-04-08T10:14:01;96706.81;;;18.23;45.99
54994;BME280;40891;47.242;8.648;2023-04-08T10:16:27;96704.19;;;19.71;42.68
54994;BME280;40891;47.242;8.648;2023-04-08T10:18:54;96701.22;;;19.96;40.49
54994;BME280;40891;47.242;8.648;2023-04-08T10:21:33;96703.25;;;19.96;39.44
54994;BME280;40891;47.242;8.648;2023-04-08T10:23:59;96697.19;;;21.75;37.07
54994;BME280;40891;47.242;8.648;2023-04-08T10:26:35;96686.59;;;22.44;35.51
54994;BME280;40891;47.242;8.648;2023-04-08T10:31:41;96687.03;;;23.24;33.58
54994;BME280;40891;47.242;8.648;2023-04-08T10:34:16;96682.69;;;22.52;34.89
54994;BME280;40891;47.242;8.648;2023-04-08T10:36:45;96677.03;;;23.17;33.47
54994;BME280;40891;47.242;8.648;2023-04-08T10:39:12;96683.56;;;22.77;34.57
54994;BME280;40891;47.242;8.648;2023-04-08T10:41:48;96676.69;;;23.56;31.94
54994;BME280;40891;47.242;8.648;2023-04-08T10:44:34;96673.97;;;22.85;32.18
54994;BME280;40891;47.242;8.648;2023-04-08T10:46:59;96666.19;;;23.21;33.02
54994;BME280;40891;47.242;8.648;2023-04-08T10:49:32;96662.53;;;24.36;30.30
54994;BME280;40891;47.242;8.648;2023-04-08T10:51:57;96659.84;;;24.25;29.77
54994;BME280;40891;47.242;8.648;2023-04-08T10:54:23;96659.25;;;24.32;30.55
54994;BME280;40891;47.242;8.648;2023-04-08T10:56:50;96656.06;;;24.35;30.32
54994;BME280;40891;47.242;8.648;2023-04-08T10:59:27;96663.31;;;23.75;32.50
54994;BME280;40891;47.242;8.648;2023-04-08T11:01:52;96667.81;;;22.41;34.06
54994;BME280;40891;47.242;8.648;2023-04-08T11:04:17;96665.97;;;22.43;34.83
54994;BME280;40891;47.242;8.648;2023-04-08T11:06:45;96676.16;;;21.53;36.47
54994;BME280;40891;47.242;8.648;2023-04-08T11:09:12;96676.50;;;21.00;37.01
54994;BME280;40891;47.242;8.648;2023-04-08T11:11:37;96671.09;;;21.24;36.36
54994;BME280;40891;47.242;8.648;2023-04-08T11:14:03;96668.25;;;20.96;37.22
54994;BME280;40891;47.242;8.648;2023-04-08T11:16:30;96667.75;;;20.59;37.62
54994;BME280;40891;47.242;8.648;2023-04-08T11:18:56;96674.16;;;20.60;37.89
54994;BME280;40891;47.242;8.648;2023-04-08T11:21:22;96670.44;;;19.98;38.79
54994;BME280;40891;47.242;8.648;2023-04-08T11:23:48;96670.19;;;20.07;39.91
54994;BME280;40891;47.242;8.648;2023-04-08T11:26:15;96667.28;;;19.85;39.67
54994;BME280;40891;47.242;8.648;2023-04-08T11:28:40;96670.81;;;19.69;40.16
54994;BME280;40891;47.242;8.648;2023-04-08T11:31:05;96669.03;;;19.72;39.55
54994;BME280;40891;47.242;8.648;2023-04-08T11:33:33;96675.06;;;19.48;42.11
54994;BME280;40891;47.242;8.648;2023-04-08T11:36:00;96669.09;;;19.88;41.40
54994;BME280;40891;47.242;8.648;2023-04-08T11:38:28;96672.16;;;19.79;39.83
54994;BME280;40891;47.242;8.648;2023-04-08T11:40:54;96671.13;;;19.82;38.88
54994;BME280;40891;47.242;8.648;2023-04-08T11:43:21;96661.59;;;20.72;39.55
54994;BME280;40891;47.242;8.648;2023-04-08T11:45:47;96661.31;;;21.03;38.05
54994;BME280;40891;47.242;8.648;2023-04-08T11:48:14;96658.22;;;21.29;36.23
54994;BME280;40891;47.242;8.648;2023-04-08T11:50:41;96661.34;;;21.14;36.92
54994;BME280;40891;47.242;8.648;2023-04-08T11:55:42;96658.97;;;21.35;36.85
54994;BME280;40891;47.242;8.648;2023-04-08T11:58:08;96656.25;;;21.81;36.29
54994;BME280;40891;47.242;8.648;2023-04-08T12:00:33;96643.47;;;22.21;35.07
54994;BME280;40891;47.242;8.648;2023-04-08T12:02:58;96643.50;;;22.15;35.15
54994;BME280;40891;47.242;8.648;2023-04-08T12:05:24;96655.78;;;21.72;34.24
54994;BME280;40891;47.242;8.648;2023-04-08T12:07:50;96658.78;;;21.05;36.05
54994;BME280;40891;47.242;8.648;2023-04-08T12:10:15;96657.19;;;20.38;38.67
54994;BME280;40891;47.242;8.648;2023-04-08T12:12:41;96654.53;;;20.12;38.85
54994;BME280;40891;47.242;8.648;2023-04-08T12:15:07;96651.47;;;20.15;37.64
54994;BME280;40891;47.242;8.648;2023-04-08T12:17:33;96644.44;;;19.78;38.79
54994;BME280;40891;47.242;8.648;2023-04-08T12:19:58;96642.84;;;19.65;39.32
54994;BME280;40891;47.242;8.648;2023-04-08T12:22:24;96653.09;;;18.84;42.37
54994;BME280;40891;47.242;8.648;2023-04-08T12:24:49;96654.47;;;18.37;43.37
54994;BME280;40891;47.242;8.648;2023-04-08T12:27:15;96653.94;;;18.07;44.16
54994;BME280;40891;47.242;8.648;2023-04-08T12:29:40;96656.66;;;17.76;43.48
54994;BME280;40891;47.242;8.648;2023-04-08T12:32:06;96662.53;;;17.18;43.43
54994;BME280;40891;47.242;8.648;2023-04-08T12:34:31;96665.34;;;17.38;43.90
54994;BME280;40891;47.242;8.648;2023-04-08T12:36:57;96659.19;;;17.74;43.49
54994;BME280;40891;47.242;8.648;2023-04-08T12:39:23;96654.03;;;18.44;41.36
54994;BME280;40891;47.242;8.648;2023-04-08T12:41:48;96652.28;;;19.57;38.78
54994;BME280;40891;47.242;8.648;2023-04-08T12:44:13;96645.38;;;20.78;36.38
54994;BME280;40891;47.242;8.648;2023-04-08T12:46:39;96648.47;;;20.80;37.24
54994;BME280;40891;47.242;8.648;2023-04-08T12:49:04;96648.63;;;20.10;35.98
54994;BME280;40891;47.242;8.648;2023-04-08T12:51:30;96643.22;;;19.36;36.94
54994;BME280;40891;47.242;8.648;2023-04-08T12:53:56;96643.16;;;19.25;38.58
54994;BME280;40891;47.242;8.648;2023-04-08T12:56:21;96654.16;;;18.29;40.20
54994;BME280;40891;47.242;8.648;2023-04-08T12:58:47;96655.25;;;17.86;41.48
54994;BME280;40891;47.242;8.648;2023-04-08T13:01:12;96658.13;;;17.51;43.21
54994;BME280;40891;47.242;8.648;2023-04-08T13:03:37;96669.66;;;16.98;42.54
54994;BME280;40891;47.242;8.648;2023-04-08T13:06:04;96662.47;;;16.63;43.03
54994;BME280;40891;47.242;8.648;2023-04-08T13:08:29;96674.72;;;16.21;45.00
54994;BME280;40891;47.242;8.648;2023-04-08T13:10:55;96668.34;;;16.35;45.68
54994;BME280;40891;47.242;8.648;2023-04-08T13:13:20;96661.88;;;16.44;47.67